createdAt,value
2023-03-22T00:02:05.811Z,98350.13
2023-03-22T00:04:32.657Z,98351.03
2023-03-22T00:06:59.359Z,98342.22
2023-03-22T00:09:25.978Z,98342.22
2023-03-22T00:11:52.577Z,98343.13
2023-03-22T00:14:19.540Z,98341.38
2023-03-22T00:16:46.405Z,98341.41
2023-03-22T00:19:13.002Z,98330.81
2023-03-22T00:21:39.514Z,98332.53
2023-03-22T00:24:06.544Z,98328.13
2023-03-22T00:26:34.616Z,98328.19
2023-03-22T00:29:01.172Z,98331.69
2023-03-22T00:31:28.910Z,98329.06
2023-03-22T00:33:58.969Z,98325.53
2023-03-22T00:36:25.751Z,98332.59
2023-03-22T00:38:52.291Z,98322.88
2023-03-22T00:41:22.324Z,98322.88
2023-03-22T00:43:49.949Z,98322.84
2023-03-22T00:46:19.415Z,98315.78
2023-03-22T00:48:46.044Z,98314.91
2023-03-22T00:51:13.882Z,98315.78
2023-03-22T00:53:43.210Z,98321.97
2023-03-22T00:56:13.854Z,98313.13
2023-03-22T00:58:40.868Z,98323.66
2023-03-22T01:01:07.470Z,98320.16
2023-03-22T01:03:38.721Z,98321.91
2023-03-22T01:06:05.677Z,98313.09
2023-03-22T01:08:32.944Z,98319.28
2023-03-22T01:11:01.151Z,98313.97
2023-03-22T01:13:28.053Z,98315.72
2023-03-22T01:15:54.580Z,98306.94
2023-03-22T01:18:22.303Z,98308.75
2023-03-22T01:20:48.767Z,98292.91
2023-03-22T01:23:15.420Z,98289.38
2023-03-22T01:25:41.935Z,98291.13
2023-03-22T01:28:08.949Z,98298.19
2023-03-22T01:30:35.580Z,98297.31
2023-03-22T01:33:02.288Z,98294.66
2023-03-22T01:35:28.933Z,98297.31
2023-03-22T01:37:55.556Z,98292.91
2023-03-22T01:40:22.103Z,98293.81
2023-03-22T01:42:48.672Z,98295.59
2023-03-22T01:45:15.378Z,98292.97
2023-03-22T01:47:44.100Z,98286.78
2023-03-22T01:50:10.898Z,98274.44
2023-03-22T01:52:38.312Z,98278.91
2023-03-22T01:55:06.545Z,98281.53
2023-03-22T01:57:37.519Z,98286.84
2023-03-22T02:00:12.182Z,98272.72
2023-03-22T02:02:38.899Z,98283.31
2023-03-22T02:05:05.770Z,98278.88
2023-03-22T02:07:35.594Z,98272.75
2023-03-22T02:10:02.061Z,98276.25
2023-03-22T02:12:57.815Z,98270.09
2023-03-22T02:15:55.880Z,98271.88
2023-03-22T02:18:48.880Z,98274.47
2023-03-22T02:21:49.049Z,98271.84
2023-03-22T02:24:34.784Z,98267.44
2023-03-22T02:27:10.525Z,98272.69
2023-03-22T02:29:52.560Z,98268.31
2023-03-22T02:32:27.958Z,98268.34
2023-03-22T02:35:09.761Z,98264.78
2023-03-22T02:38:17.470Z,98263.94
2023-03-22T02:40:58.869Z,98262.13
2023-03-22T02:43:41.592Z,98258.63
2023-03-22T02:46:14.453Z,98254.22
2023-03-22T02:49:16.300Z,98247.19
2023-03-22T02:51:49.005Z,98246.28
2023-03-22T02:54:26.255Z,98249.81
2023-03-22T02:57:01.288Z,98247.16
2023-03-22T02:59:32.000Z,98241.88
2023-03-22T03:02:03.741Z,98241.84
2023-03-22T03:04:37.840Z,98237.44
2023-03-22T03:07:09.352Z,98249.75
2023-03-22T03:09:39.189Z,98242.72
2023-03-22T03:12:13.617Z,98243.59
2023-03-22T03:14:40.243Z,98238.31
2023-03-22T03:17:29.676Z,98237.44
2023-03-22T03:20:08.570Z,98239.19
2023-03-22T03:22:47.203Z,98229.53
2023-03-22T03:25:21.020Z,98230.41
2023-03-22T03:27:59.836Z,98232.16
2023-03-22T03:30:35.445Z,98235.69
2023-03-22T03:33:09.360Z,98237.44
2023-03-22T03:35:44.016Z,98233.03
2023-03-22T03:38:17.447Z,98235.72
2023-03-22T03:40:48.580Z,98225.19
2023-03-22T03:43:16.384Z,98230.47
2023-03-22T03:45:43.016Z,98227.81
2023-03-22T03:48:17.863Z,98219.88
2023-03-22T03:50:44.937Z,98225.19
2023-03-22T03:53:11.406Z,98219.91
2023-03-22T03:55:37.989Z,98219.91
2023-03-22T03:58:04.491Z,98217.25
2023-03-22T04:00:31.161Z,98226.94
2023-03-22T04:02:57.648Z,98209.38
2023-03-22T04:05:24.132Z,98217.28
2023-03-22T04:07:50.663Z,98219.06
2023-03-22T04:10:17.316Z,98218.16
2023-03-22T04:12:43.946Z,98210.22
2023-03-22T04:15:12.255Z,98203.16
2023-03-22T04:17:39.582Z,98202.28
2023-03-22T04:20:09.552Z,98204.03
2023-03-22T04:22:38.385Z,98193.47
2023-03-22T04:25:11.657Z,98196.09
2023-03-22T04:27:42.446Z,98196.97
2023-03-22T04:30:11.239Z,98197.84
2023-03-22T04:32:38.868Z,98186.41
2023-03-22T04:35:05.869Z,98190.78
2023-03-22T04:37:32.399Z,98179.34
2023-03-22T04:39:59.344Z,98182.88
2023-03-22T04:42:29.712Z,98178.50
2023-03-22T04:44:56.160Z,98185.53
2023-03-22T04:47:26.255Z,98176.72
2023-03-22T04:49:52.736Z,98185.59
2023-03-22T04:52:19.246Z,98183.84
2023-03-22T04:54:45.741Z,98175.94
2023-03-22T04:57:12.289Z,98173.28
2023-03-22T04:59:38.800Z,98178.53
2023-03-22T05:02:05.542Z,98175.88
2023-03-22T05:04:32.280Z,98178.50
2023-03-22T05:06:58.793Z,98160.88
2023-03-22T05:09:25.434Z,98172.34
2023-03-22T05:11:52.013Z,98164.41
2023-03-22T05:14:18.502Z,98163.53
2023-03-22T05:16:45.257Z,98163.53
2023-03-22T05:19:14.294Z,98164.41
2023-03-22T05:21:44.173Z,98160.00
2023-03-22T05:24:11.475Z,98173.25
2023-03-22T05:26:42.167Z,98182.94
2023-03-22T05:29:11.706Z,98178.50
2023-03-22T05:31:38.367Z,98178.53
2023-03-22T05:34:04.938Z,98179.44
2023-03-22T05:36:31.624Z,98178.59
2023-03-22T05:38:58.143Z,98177.72
2023-03-22T05:41:24.675Z,98185.66
2023-03-22T05:43:51.165Z,98194.44
2023-03-22T05:46:17.821Z,98189.16
2023-03-22T05:48:44.435Z,98181.22
2023-03-22T05:51:17.381Z,98189.16
2023-03-22T05:53:45.457Z,98184.75
2023-03-22T05:56:12.455Z,98190.06
2023-03-22T05:58:39.759Z,98188.31
2023-03-22T06:01:08.590Z,98185.63
2023-03-22T06:03:35.484Z,98185.63
2023-03-22T06:06:02.216Z,98181.22
2023-03-22T06:08:29.049Z,98178.59
2023-03-22T06:10:55.554Z,98179.47
2023-03-22T06:13:22.174Z,98182.13
2023-03-22T06:15:48.648Z,98180.34
2023-03-22T06:18:15.483Z,98180.31
2023-03-22T06:20:42.517Z,98186.44
2023-03-22T06:23:09.082Z,98188.13
2023-03-22T06:25:38.355Z,98184.53
2023-03-22T06:28:07.500Z,98189.78
2023-03-22T06:30:35.221Z,98179.13
2023-03-22T06:33:05.384Z,98172.97
2023-03-22T06:35:35.361Z,98176.38
2023-03-22T06:38:02.048Z,98179.84
2023-03-22T06:40:28.546Z,98160.44
2023-03-22T06:42:55.027Z,98178.09
2023-03-22T06:45:24.347Z,98172.78
2023-03-22T06:47:50.993Z,98180.72
2023-03-22T06:50:17.546Z,98165.72
2023-03-22T06:52:44.070Z,98164.84
2023-03-22T06:55:10.607Z,98168.38
2023-03-22T06:57:37.125Z,98157.75
2023-03-22T07:00:05.380Z,98169.13
2023-03-22T07:02:31.940Z,98169.94
2023-03-22T07:04:58.412Z,98169.00
2023-03-22T07:07:24.878Z,98168.09
2023-03-22T07:09:52.814Z,98165.44
2023-03-22T07:12:19.258Z,98162.72
2023-03-22T07:14:46.104Z,98164.47
2023-03-22T07:17:14.091Z,98175.03
2023-03-22T07:19:42.671Z,98169.78
2023-03-22T07:22:09.408Z,98166.25
2023-03-22T07:24:40.381Z,98164.50
2023-03-22T07:27:11.184Z,98153.91
2023-03-22T07:29:37.747Z,98150.41
2023-03-22T07:32:04.476Z,98153.91
2023-03-22T07:34:31.246Z,98145.88
2023-03-22T07:36:57.771Z,98144.84
2023-03-22T07:39:28.916Z,98134.13
2023-03-22T07:41:56.003Z,98133.19
2023-03-22T07:44:22.952Z,98135.78
2023-03-22T07:46:51.670Z,98125.09
2023-03-22T07:49:18.813Z,98126.81
2023-03-22T07:51:47.982Z,98115.31
2023-03-22T07:54:30.563Z,98108.34
2023-03-22T07:56:59.358Z,98102.19
2023-03-22T07:59:25.936Z,98117.03
2023-03-22T08:01:52.553Z,98109.03
2023-03-22T08:04:20.931Z,98107.94
2023-03-22T08:06:47.565Z,98111.22
2023-03-22T08:09:14.073Z,98103.91
2023-03-22T08:11:40.572Z,98102.09
2023-03-22T08:14:07.057Z,98107.41
2023-03-22T08:16:33.852Z,98109.97
2023-03-22T08:19:00.728Z,98117.63
2023-03-22T08:21:27.493Z,98099.81
2023-03-22T08:23:54.384Z,98112.22
2023-03-22T08:26:22.144Z,98118.31
2023-03-22T08:28:48.774Z,98117.41
2023-03-22T08:31:17.351Z,98113.22
2023-03-22T08:33:44.853Z,98117.69
2023-03-22T08:36:14.478Z,98105.16
2023-03-22T08:38:42.444Z,98107.28
2023-03-22T08:41:09.132Z,98099.78
2023-03-22T08:43:35.594Z,98107.44
2023-03-22T08:46:05.245Z,98100.19
2023-03-22T08:48:31.865Z,98102.47
2023-03-22T08:50:58.516Z,98092.75
2023-03-22T08:53:25.122Z,98096.72
2023-03-22T08:55:51.647Z,98094.22
2023-03-22T08:58:19.983Z,98098.66
2023-03-22T09:00:49.449Z,98093.03
2023-03-22T09:03:17.214Z,98096.28
2023-03-22T09:05:43.919Z,98087.31
2023-03-22T09:08:18.547Z,98079.19
2023-03-22T09:10:51.161Z,98071.16
2023-03-22T09:13:18.340Z,98068.31
2023-03-22T09:15:45.228Z,98069.16
2023-03-22T09:18:12.139Z,98061.41
2023-03-22T09:20:39.035Z,98069.41
2023-03-22T09:23:06.571Z,98065.19
2023-03-22T09:25:33.238Z,98059.50
2023-03-22T09:27:59.737Z,98054.28
2023-03-22T09:30:27.212Z,98045.88
2023-03-22T09:32:54.198Z,98041.69
2023-03-22T09:35:20.852Z,98033.19
2023-03-22T09:37:49.399Z,98041.63
2023-03-22T09:40:17.441Z,98048.88
2023-03-22T09:42:47.590Z,98033.88
2023-03-22T09:45:20.613Z,98036.81
2023-03-22T09:47:51.107Z,98038.69
2023-03-22T09:50:23.777Z,98034.19
2023-03-22T09:52:51.070Z,98033.22
2023-03-22T09:55:21.836Z,98029.44
2023-03-22T09:58:23.290Z,98032.06
2023-03-22T10:01:01.527Z,98032.00
2023-03-22T10:03:49.850Z,98032.06
2023-03-22T10:06:23.016Z,98031.28
2023-03-22T10:09:11.129Z,98036.84
2023-03-22T10:11:53.400Z,98040.50
2023-03-22T10:14:30.967Z,98034.56
2023-03-22T10:17:00.529Z,98030.94
2023-03-22T10:19:58.996Z,98026.09
2023-03-22T10:22:33.029Z,98012.66
2023-03-22T10:25:00.942Z,98010.31
2023-03-22T10:27:31.578Z,98001.91
2023-03-22T10:30:18.372Z,97982.13
2023-03-22T10:32:57.801Z,97994.13
2023-03-22T10:35:25.292Z,97995.03
2023-03-22T10:37:52.902Z,98007.50
2023-03-22T10:40:29.725Z,98006.50
2023-03-22T10:43:00.988Z,98015.88
2023-03-22T10:45:28.330Z,97998.06
2023-03-22T10:48:05.653Z,97994.63
2023-03-22T10:50:36.539Z,97996.47
2023-03-22T10:53:06.908Z,98014.31
2023-03-22T10:55:41.054Z,98012.81
2023-03-22T10:58:19.552Z,97999.53
2023-03-22T11:00:56.871Z,98003.44
2023-03-22T11:03:28.266Z,98013.72
2023-03-22T11:06:02.889Z,98005.38
2023-03-22T11:08:29.530Z,98027.22
2023-03-22T11:11:00.187Z,97993.47
2023-03-22T11:13:27.097Z,98021.22
2023-03-22T11:16:02.293Z,98024.28
2023-03-22T11:18:32.209Z,98010.41
2023-03-22T11:21:04.428Z,98012.28
2023-03-22T11:23:34.862Z,98014.78
2023-03-22T11:26:29.464Z,98003.19
2023-03-22T11:29:04.931Z,97999.47
2023-03-22T11:31:51.240Z,97991.72
2023-03-22T11:34:22.910Z,97989.22
2023-03-22T11:36:56.612Z,97992.06
2023-03-22T11:39:26.512Z,97989.81
2023-03-22T11:41:57.583Z,97990.81
2023-03-22T11:44:27.043Z,97996.00
2023-03-22T11:47:00.541Z,97993.31
2023-03-22T11:49:52.498Z,97979.22
2023-03-22T11:52:23.511Z,97974.81
2023-03-22T11:54:51.195Z,97967.78
2023-03-22T11:57:23.431Z,97970.59
2023-03-22T12:00:08.081Z,97950.19
2023-03-22T12:02:40.960Z,97963.59
2023-03-22T12:05:27.246Z,97972.47
2023-03-22T12:08:11.740Z,97957.41
2023-03-22T12:10:48.368Z,97958.31
2023-03-22T12:13:44.089Z,97956.63
2023-03-22T12:16:14.067Z,97959.16
2023-03-22T12:18:48.619Z,97967.13
2023-03-22T12:21:15.852Z,97966.16
2023-03-22T12:23:42.844Z,97973.00
2023-03-22T12:26:12.401Z,97974.56
2023-03-22T12:28:50.667Z,97968.25
2023-03-22T12:31:46.499Z,97969.16
2023-03-22T12:34:19.225Z,97966.56
2023-03-22T12:36:54.315Z,97962.16
2023-03-22T12:39:35.046Z,97961.88
2023-03-22T12:42:10.844Z,97975.84
2023-03-22T12:44:44.874Z,97962.41
2023-03-22T12:47:30.644Z,97971.22
2023-03-22T12:50:03.909Z,97969.31
2023-03-22T12:52:46.197Z,97966.75
2023-03-22T12:55:18.991Z,97958.94
2023-03-22T12:57:51.216Z,97959.94
2023-03-22T13:00:27.653Z,97962.50
2023-03-22T13:03:17.572Z,97942.25
2023-03-22T13:05:47.287Z,97958.34
2023-03-22T13:08:20.034Z,97949.59
2023-03-22T13:10:49.176Z,97950.41
2023-03-22T13:13:17.434Z,97946.97
2023-03-22T13:15:57.620Z,97946.03
2023-03-22T13:18:36.396Z,97946.56
2023-03-22T13:21:16.541Z,97958.78
2023-03-22T13:24:07.458Z,97958.34
2023-03-22T13:26:39.708Z,97967.81
2023-03-22T13:29:18.645Z,97962.19
2023-03-22T13:31:50.981Z,97960.75
2023-03-22T13:34:31.866Z,97955.84
2023-03-22T13:37:03.608Z,97943.16
2023-03-22T13:39:36.065Z,97947.63
2023-03-22T13:42:08.442Z,97950.56
2023-03-22T13:44:43.009Z,97941.03
2023-03-22T13:47:29.801Z,97935.78
2023-03-22T13:50:23.596Z,97930.72
2023-03-22T13:53:00.125Z,97940.72
2023-03-22T13:55:51.836Z,97932.13
2023-03-22T13:58:36.028Z,97917.44
2023-03-22T14:01:13.529Z,97919.38
2023-03-22T14:03:46.412Z,97915.09
2023-03-22T14:06:25.670Z,97919.53
2023-03-22T14:09:02.362Z,97919.47
2023-03-22T14:11:52.938Z,97910.47
2023-03-22T14:14:25.902Z,97913.16
2023-03-22T14:16:58.523Z,97917.50
2023-03-22T14:19:31.622Z,97897.16
